createdAt,value
2023-05-25T00:04:10.507Z,59.97
2023-05-25T00:09:15.520Z,59.98
2023-05-25T00:14:17.637Z,60.13
2023-05-25T00:19:24.557Z,60.27
2023-05-25T00:24:30.815Z,59.98
2023-05-25T00:29:36.594Z,60.03
2023-05-25T00:34:39.321Z,59.96
2023-05-25T00:39:41.827Z,60.00
2023-05-25T00:44:43.924Z,59.98
2023-05-25T00:49:46.334Z,59.74
2023-05-25T00:54:54.169Z,60.82
2023-05-25T00:59:58.447Z,62.97
2023-05-25T01:05:17.570Z,65.38
2023-05-25T01:10:22.828Z,66.84
2023-05-25T01:15:27.611Z,66.87
2023-05-25T01:20:30.779Z,67.14
2023-05-25T01:25:40.747Z,67.97
2023-05-25T01:30:47.309Z,67.74
2023-05-25T01:35:52.752Z,66.43
2023-05-25T01:40:57.588Z,65.70
2023-05-25T01:46:18.455Z,65.47
2023-05-25T01:51:37.113Z,65.39
2023-05-25T01:56:42.813Z,65.33
2023-05-25T02:01:46.353Z,65.01
2023-05-25T02:06:49.249Z,64.49
2023-05-25T02:11:51.392Z,65.00
2023-05-25T02:16:53.425Z,65.34
2023-05-25T02:22:46.292Z,65.44
2023-05-25T02:27:48.418Z,65.20
2023-05-25T02:32:50.938Z,64.97
2023-05-25T02:42:46.225Z,65.86
2023-05-25T02:47:53.771Z,66.36
2023-05-25T02:52:58.125Z,66.38
2023-05-25T02:58:00.899Z,66.27
2023-05-25T03:03:41.431Z,66.81
2023-05-25T03:08:43.616Z,66.81
2023-05-25T03:13:46.537Z,68.00
2023-05-25T03:18:53.798Z,68.37
2023-05-25T03:23:55.851Z,68.70
2023-05-25T03:28:58.079Z,69.17
2023-05-25T03:34:00.183Z,69.62
2023-05-25T03:39:02.521Z,69.75
2023-05-25T03:44:05.246Z,70.64
2023-05-25T03:49:13.881Z,71.68
2023-05-25T03:54:16.452Z,72.04
2023-05-25T03:59:18.885Z,71.84
2023-05-25T04:04:22.355Z,73.19
2023-05-25T04:09:24.409Z,74.00
2023-05-25T06:26:36.290Z,75.19
2023-05-25T06:31:39.213Z,75.05
2023-05-25T06:36:42.343Z,75.32
2023-05-25T06:41:45.507Z,75.58
2023-05-25T06:46:51.389Z,75.71
2023-05-25T06:51:56.224Z,76.42
2023-05-25T06:56:58.185Z,77.32
2023-05-25T07:02:00.663Z,78.40
2023-05-25T07:07:02.790Z,79.01
2023-05-25T07:12:07.598Z,79.77
2023-05-25T07:17:10.432Z,80.21
2023-05-25T07:22:12.546Z,80.80
2023-05-25T07:27:14.866Z,81.69
2023-05-25T07:32:16.906Z,81.85
2023-05-25T07:37:18.957Z,81.89
2023-05-25T07:42:21.830Z,82.64
2023-05-25T07:47:23.976Z,82.82
2023-05-25T07:52:26.517Z,82.82
2023-05-25T07:57:29.869Z,83.39
2023-05-25T08:02:32.422Z,83.40
2023-05-25T08:07:35.086Z,83.61
2023-05-25T08:12:48.005Z,84.18
2023-05-25T08:17:52.540Z,84.11
2023-05-25T08:22:54.828Z,84.11
2023-05-25T08:27:57.051Z,84.34
2023-05-25T08:32:59.118Z,83.86
2023-05-25T08:38:01.395Z,83.46
2023-05-25T08:43:03.660Z,83.24
2023-05-25T08:48:12.471Z,84.38
2023-05-25T08:53:17.317Z,83.42
2023-05-25T08:58:31.403Z,83.71
2023-05-25T09:03:34.094Z,83.05
2023-05-25T09:08:38.609Z,82.73
2023-05-25T09:13:41.200Z,82.56
2023-05-25T09:18:43.553Z,82.57
2023-05-25T09:23:45.822Z,82.55
2023-05-25T09:28:48.482Z,82.49
2023-05-25T09:33:51.598Z,82.47
2023-05-25T09:38:57.046Z,82.63
2023-05-25T09:44:10.611Z,81.82
2023-05-25T09:49:14.194Z,81.56
2023-05-25T09:54:16.459Z,80.65
2023-05-25T09:59:18.753Z,80.98
2023-05-25T10:04:21.101Z,81.15
2023-05-25T10:09:26.063Z,81.59
2023-05-25T10:14:30.365Z,81.81
2023-05-25T10:19:45.700Z,82.19
2023-05-25T10:25:15.252Z,82.19
2023-05-25T10:30:18.938Z,80.95
2023-05-25T10:35:21.680Z,79.95
2023-05-25T10:40:24.364Z,79.29
2023-05-25T10:45:27.082Z,78.94
2023-05-25T10:50:35.458Z,79.68
2023-05-25T10:56:03.160Z,80.59
2023-05-25T11:01:13.525Z,80.57
2023-05-25T11:06:37.652Z,80.62
2023-05-25T11:11:42.713Z,82.11
2023-05-25T11:17:06.478Z,83.24
2023-05-25T11:22:32.053Z,83.26
2023-05-25T11:27:46.425Z,85.05
2023-05-25T11:32:51.432Z,85.44
2023-05-25T11:37:53.828Z,86.05
2023-05-25T11:42:58.205Z,86.33
2023-05-25T11:48:00.640Z,87.14
2023-05-25T11:53:07.154Z,87.91
2023-05-25T11:58:12.730Z,87.52
2023-05-25T12:03:31.950Z,89.88
2023-05-25T12:08:37.845Z,88.33
2023-05-25T12:13:41.134Z,87.31
2023-05-25T12:18:43.625Z,86.80
2023-05-25T12:23:46.093Z,87.25
2023-05-25T12:29:10.252Z,90.05
2023-05-25T12:34:14.542Z,89.62
2023-05-25T12:39:18.502Z,89.50
2023-05-25T12:44:26.866Z,89.54
2023-05-25T12:49:34.361Z,88.90
2023-05-25T12:54:45.178Z,89.60
2023-05-25T12:59:47.982Z,89.68
2023-05-25T13:04:50.109Z,89.05
2023-05-25T13:09:52.401Z,89.36
2023-05-25T13:14:54.692Z,89.59
2023-05-25T13:19:56.981Z,89.05
2023-05-25T13:24:59.186Z,88.69
2023-05-25T13:30:01.352Z,88.13
2023-05-25T13:35:04.924Z,87.60
2023-05-25T13:40:07.643Z,87.70
2023-05-25T13:45:10.383Z,87.59
2023-05-25T13:50:12.511Z,87.28
2023-05-25T13:55:14.518Z,86.87
2023-05-25T14:00:18.539Z,86.53
2023-05-25T14:05:20.809Z,86.53
2023-05-25T14:10:23.026Z,87.34
2023-05-25T14:15:25.596Z,87.56
2023-05-25T14:20:27.911Z,88.42
2023-05-25T14:25:29.934Z,88.97
2023-05-25T14:30:32.048Z,88.68
2023-05-25T14:35:34.138Z,88.96
2023-05-25T14:40:41.084Z,88.03
2023-05-25T14:45:43.470Z,87.83
2023-05-25T14:50:45.844Z,87.08
2023-05-25T14:55:47.927Z,86.06
2023-05-25T15:00:50.284Z,85.92
2023-05-25T15:05:52.380Z,85.19
2023-05-25T15:10:54.594Z,84.85
2023-05-25T15:15:57.912Z,85.83
2023-05-25T15:21:00.236Z,86.06
2023-05-25T15:26:04.260Z,86.70
2023-05-25T15:31:06.567Z,87.01
2023-05-25T15:36:08.830Z,87.27
2023-05-25T15:41:15.033Z,87.74
2023-05-25T15:46:17.120Z,87.11
2023-05-25T15:51:19.517Z,86.56
2023-05-25T15:56:22.889Z,85.79
2023-05-25T16:01:24.949Z,85.88
2023-05-25T16:06:27.599Z,86.04
2023-05-25T16:11:31.868Z,86.16
2023-05-25T16:16:34.044Z,86.78
2023-05-25T16:21:37.726Z,86.99
2023-05-25T16:26:39.958Z,86.65
2023-05-25T16:31:42.206Z,85.64
2023-05-25T16:36:44.155Z,85.97
2023-05-25T16:41:47.749Z,85.16
2023-05-25T16:46:51.548Z,84.99
2023-05-25T16:51:54.836Z,86.03
2023-05-25T16:56:58.722Z,86.54
2023-05-25T17:02:01.096Z,86.21
2023-05-25T17:07:03.558Z,85.75
2023-05-25T17:12:06.552Z,86.38
2023-05-25T17:17:08.511Z,86.88
2023-05-25T17:22:10.866Z,87.30
2023-05-25T17:27:12.957Z,87.88
2023-05-25T17:32:15.016Z,88.18
2023-05-25T17:37:18.587Z,88.89
2023-05-25T17:42:21.089Z,89.44
2023-05-25T17:47:24.137Z,90.30
2023-05-25T17:52:26.301Z,89.57
2023-05-25T17:57:28.351Z,89.45
2023-05-25T18:02:30.985Z,88.53
2023-05-25T18:07:33.182Z,88.74
2023-05-25T18:12:35.221Z,89.07
2023-05-25T18:17:41.117Z,89.03
2023-05-25T18:22:43.357Z,89.37
2023-05-25T18:27:45.715Z,89.97
2023-05-25T18:32:48.116Z,89.72
2023-05-25T18:37:50.329Z,89.23
2023-05-25T18:42:52.540Z,88.78
2023-05-25T18:47:54.752Z,88.95
2023-05-25T18:52:59.537Z,89.18
2023-05-25T18:58:01.673Z,89.53
2023-05-25T19:03:04.168Z,89.64
2023-05-25T19:08:06.353Z,89.83
2023-05-25T19:13:08.504Z,90.41
2023-05-25T19:18:10.701Z,90.53
2023-05-25T19:23:13.953Z,91.14
2023-05-25T19:28:15.924Z,91.61
2023-05-25T19:33:18.306Z,94.40
2023-05-25T19:38:20.719Z,92.00
2023-05-25T19:43:23.384Z,92.27
2023-05-25T19:48:27.309Z,92.28
2023-05-25T19:53:31.475Z,92.63
2023-05-25T19:58:33.587Z,92.66
2023-05-25T20:03:35.980Z,92.82
2023-05-25T20:08:38.294Z,92.77
2023-05-25T20:13:41.478Z,92.86
2023-05-25T20:18:43.756Z,92.99
2023-05-25T20:23:45.763Z,92.99
2023-05-25T20:28:47.842Z,92.88
2023-05-25T20:33:49.896Z,93.30
2023-05-25T20:38:52.001Z,93.10
2023-05-25T20:43:57.106Z,93.58
2023-05-25T20:48:59.142Z,93.14
2023-05-25T20:54:01.186Z,92.94
2023-05-25T20:59:03.336Z,93.31
2023-05-25T21:04:05.694Z,93.40
2023-05-25T21:09:07.897Z,93.51
2023-05-25T21:14:09.950Z,93.03
2023-05-25T21:19:11.890Z,91.73
2023-05-25T21:24:14.016Z,91.22
2023-05-25T21:29:16.168Z,90.31
2023-05-25T21:34:18.285Z,89.81
2023-05-25T21:39:20.381Z,89.78
2023-05-25T21:44:22.529Z,89.24
2023-05-25T21:49:24.605Z,89.70
2023-05-25T21:54:27.034Z,89.57
2023-05-25T21:59:29.248Z,89.50
2023-05-25T22:04:31.654Z,89.12
2023-05-25T22:09:33.796Z,88.56
2023-05-25T22:14:40.802Z,88.53
2023-05-25T22:19:46.820Z,88.63
2023-05-25T22:24:54.490Z,88.62
2023-05-25T22:29:56.691Z,88.46
2023-05-25T22:34:58.947Z,88.76
2023-05-25T22:40:01.275Z,89.09
2023-05-25T22:45:03.610Z,89.40
2023-05-25T22:50:06.139Z,89.89
2023-05-25T22:55:09.218Z,90.22
2023-05-25T23:00:11.824Z,90.48
2023-05-25T23:05:13.976Z,91.16
2023-05-25T23:10:16.445Z,91.18
2023-05-25T23:15:23.649Z,91.64
2023-05-25T23:20:25.837Z,91.71
2023-05-25T23:25:28.182Z,92.13
2023-05-25T23:30:30.470Z,91.98
2023-05-25T23:35:32.610Z,91.70
2023-05-25T23:40:40.904Z,91.53
2023-05-25T23:45:43.413Z,91.97
2023-05-25T23:50:46.384Z,91.97
2023-05-25T23:55:48.530Z,92.00
